Time;durP1;ratioP1;P1;durP2;ratioP2;P2;SDS_P1;SDS_P2;PMS_P1;PMS_P2;Temp;Humidity;BMP_temperature;BMP_pressure;BME280_temperature;BME280_humidity;BME280_pressure;Samples;Min_cycle;Max_cycle;Signal;HPM_P1;HPM_P2
2021/05/25 00:00:56;;;;;;;1.10;0.80;;;;;;;10.78;86.09;100495.72;5058881;28;20052;-78
2021/05/25 00:03:22;;;;;;;1.02;0.93;;;;;;;10.78;86.90;100487.88;5041941;28;20020;-79
2021/05/25 00:05:48;;;;;;;1.52;1.27;;;;;;;10.77;86.74;100496.59;5042455;28;20027;-78
2021/05/25 00:08:13;;;;;;;2.58;1.88;;;;;;;10.75;86.75;100487.97;5059012;28;20032;-79
2021/05/25 00:10:39;;;;;;;2.10;2.00;;;;;;;10.74;86.19;100483.63;5058295;28;20070;-79
2021/05/25 00:13:05;;;;;;;2.30;2.10;;;;;;;10.67;86.49;100485.50;5058059;28;20439;-79
2021/05/25 00:15:33;;;;;;;2.83;2.55;;;;;;;10.40;86.93;100482.53;5058165;28;20029;-80
2021/05/25 00:17:58;;;;;;;2.55;2.30;;;;;;;10.48;87.47;100485.00;5058742;28;20027;-80
2021/05/25 00:20:24;;;;;;;2.05;1.95;;;;;;;10.57;87.16;100481.34;5058009;28;20095;-80
2021/05/25 00:22:50;;;;;;;1.48;1.40;;;;;;;10.60;87.17;100481.28;5041646;28;20017;-79
2021/05/25 00:25:16;;;;;;;2.17;1.98;;;;;;;10.60;87.25;100479.53;5041355;28;20028;-80
2021/05/25 00:27:43;;;;;;;3.05;1.85;;;;;;;10.58;86.98;100478.72;5076246;28;20024;-81
2021/05/25 00:30:10;;;;;;;1.85;1.52;;;;;;;10.45;87.29;100477.22;5058415;28;20388;-80
2021/05/25 00:32:36;;;;;;;4.50;1.50;;;;;;;10.20;88.06;100477.66;5041534;28;20029;-80
2021/05/25 00:35:02;;;;;;;3.17;1.27;;;;;;;10.38;88.14;100468.63;5058279;28;20029;-79
2021/05/25 00:37:27;;;;;;;1.65;1.25;;;;;;;10.45;87.71;100458.94;5041365;28;20119;-79
2021/05/25 00:39:53;;;;;;;1.05;0.95;;;;;;;10.42;86.85;100449.41;5041274;28;20108;-80
2021/05/25 00:42:18;;;;;;;1.02;0.95;;;;;;;10.40;87.13;100447.72;5041166;28;20029;-79
2021/05/25 00:44:43;;;;;;;0.80;0.80;;;;;;;10.35;87.12;100449.56;5057807;28;20023;-79
2021/05/25 00:47:09;;;;;;;0.95;0.95;;;;;;;10.36;86.72;100459.13;5040799;28;20028;-79
2021/05/25 00:49:34;;;;;;;1.08;0.98;;;;;;;10.32;87.70;100448.72;5041103;28;20025;-80
2021/05/25 00:51:59;;;;;;;1.10;1.00;;;;;;;10.29;86.89;100442.66;5041001;28;20048;-79
2021/05/25 00:54:25;;;;;;;2.00;1.02;;;;;;;10.25;87.20;100449.72;5058089;28;20024;-79
2021/05/25 00:56:50;;;;;;;0.93;0.90;;;;;;;10.18;87.09;100445.47;5041193;28;20391;-79
2021/05/25 00:59:16;;;;;;;1.15;0.80;;;;;;;10.14;87.86;100451.66;5057600;28;20024;-79
2021/05/25 01:01:41;;;;;;;1.23;0.70;;;;;;;10.10;87.50;100447.38;5057539;28;20025;-80
2021/05/25 01:04:07;;;;;;;0.90;0.70;;;;;;;10.09;87.49;100443.91;5057677;28;20012;-81
2021/05/25 01:06:33;;;;;;;1.23;0.73;;;;;;;10.09;88.34;100440.41;5040989;28;20040;-81
2021/05/25 01:09:00;;;;;;;1.48;0.90;;;;;;;10.09;87.76;100443.03;5058104;28;20490;-81
2021/05/25 01:11:27;;;;;;;0.90;0.90;;;;;;;10.06;88.48;100445.72;5057741;28;20083;-80
2021/05/25 01:13:55;;;;;;;1.92;1.10;;;;;;;10.08;88.57;100451.78;5074958;28;20056;-80
2021/05/25 01:16:27;;;;;;;0.80;0.80;;;;;;;10.08;88.80;100446.56;5075348;28;20382;-80
2021/05/25 01:18:56;;;;;;;1.70;1.10;;;;;;;10.01;88.33;100443.19;5058047;28;20029;-81
2021/05/25 01:21:23;;;;;;;1.00;1.00;;;;;;;10.06;88.78;100441.38;5057332;28;20054;-79
2021/05/25 01:23:48;;;;;;;1.60;1.42;;;;;;;10.13;88.51;100449.94;5074242;28;20020;-80
2021/05/25 01:26:16;;;;;;;1.05;1.05;;;;;;;10.17;88.58;100449.00;5040500;28;20316;-80
2021/05/25 01:28:41;;;;;;;2.60;0.80;;;;;;;10.03;88.42;100440.56;5040767;28;20024;-80
2021/05/25 01:31:07;;;;;;;1.35;1.15;;;;;;;10.09;88.10;100445.63;5057354;28;20028;-80
2021/05/25 01:33:36;;;;;;;2.22;1.00;;;;;;;10.10;87.81;100444.75;5057221;28;20028;-80
2021/05/25 01:36:02;;;;;;;1.02;0.98;;;;;;;10.12;87.73;100445.59;5057955;28;20024;-79
2021/05/25 01:38:27;;;;;;;1.02;1.00;;;;;;;10.11;88.28;100434.28;5040465;28;20040;-80
2021/05/25 01:40:55;;;;;;;1.05;0.73;;;;;;;10.10;87.98;100443.03;5040823;28;20040;-80
2021/05/25 01:43:21;;;;;;;1.00;1.00;;;;;;;10.10;87.55;100447.38;5040799;28;20032;-81
2021/05/25 01:45:47;;;;;;;1.45;1.05;;;;;;;10.04;88.16;100447.50;5057672;28;20359;-81
2021/05/25 01:48:12;;;;;;;1.02;0.77;;;;;;;10.10;87.61;100449.97;5057505;28;20028;-81
2021/05/25 01:50:40;;;;;;;0.90;0.90;;;;;;;10.09;87.54;100446.53;5043908;28;20029;-80
2021/05/25 01:53:10;;;;;;;1.02;0.93;;;;;;;10.09;87.65;100448.25;5077641;28;20020;-78
2021/05/25 01:55:53;;;;;;;0.70;0.70;;;;;;;10.06;87.47;100450.94;5078282;28;20331;-81
2021/05/25 01:58:33;;;;;;;1.95;1.10;;;;;;;10.04;87.79;100455.31;5057937;28;20025;-80
2021/05/25 02:01:01;;;;;;;1.05;0.98;;;;;;;10.01;88.03;100451.03;5058952;28;20443;-82
2021/05/25 02:03:29;;;;;;;1.50;1.23;;;;;;;10.02;88.31;100457.97;5057475;28;20087;-81
2021/05/25 02:05:55;;;;;;;1.63;1.10;;;;;;;9.94;88.69;100455.47;5057805;28;20021;-81
2021/05/25 02:08:21;;;;;;;3.40;1.42;;;;;;;9.97;88.26;100458.03;5057430;28;20023;-80
2021/05/25 02:10:51;;;;;;;1.42;1.10;;;;;;;9.80;88.76;100454.84;5041090;28;20027;-82
2021/05/25 02:13:21;;;;;;;1.20;1.10;;;;;;;9.84;88.42;100450.44;5057308;28;20024;-82
2021/05/25 02:15:49;;;;;;;0.88;0.88;;;;;;;9.72;89.09;100454.13;5040808;28;20122;-82
2021/05/25 02:18:16;;;;;;;1.00;1.00;;;;;;;9.74;89.33;100450.59;5057503;28;20027;-80
2021/05/25 02:20:44;;;;;;;1.10;1.10;;;;;;;9.84;88.99;100446.06;5040647;28;20304;-80
2021/05/25 02:23:09;;;;;;;1.17;1.08;;;;;;;9.78;88.58;100440.97;5040425;28;20028;-82
2021/05/25 02:25:35;;;;;;;0.95;0.95;;;;;;;9.79;89.58;100437.50;5040039;28;20301;-80
2021/05/25 02:28:02;;;;;;;2.72;1.20;;;;;;;9.73;89.68;100437.59;5057375;28;20382;-81
2021/05/25 02:30:28;;;;;;;1.67;1.30;;;;;;;9.86;88.85;100427.78;5040778;28;20424;-81
2021/05/25 02:32:55;;;;;;;1.35;1.05;;;;;;;9.75;88.63;100428.84;5040227;28;20419;-80
2021/05/25 02:35:20;;;;;;;1.25;1.15;;;;;;;9.88;88.65;100439.91;5024540;28;20321;-80
2021/05/25 02:37:45;;;;;;;1.15;1.13;;;;;;;9.80;88.20;100439.19;5044442;28;20116;-80
2021/05/25 02:40:11;;;;;;;1.10;1.00;;;;;;;9.84;88.08;100430.44;5060818;28;20029;-79
2021/05/25 02:42:37;;;;;;;1.60;1.30;;;;;;;9.77;88.49;100426.22;5060756;28;20024;-79
2021/05/25 02:45:04;;;;;;;1.10;1.00;;;;;;;9.71;88.73;100431.56;5044110;28;20017;-79
2021/05/25 02:47:29;;;;;;;1.05;1.05;;;;;;;9.86;87.66;100427.78;5043342;28;20032;-80
2021/05/25 02:49:54;;;;;;;0.90;0.90;;;;;;;9.80;88.03;100420.94;5060543;28;20112;-80
2021/05/25 02:52:20;;;;;;;1.05;1.00;;;;;;;9.71;87.45;100418.50;5060363;28;20059;-81
2021/05/25 02:54:46;;;;;;;2.20;1.02;;;;;;;9.73;87.73;100427.16;5043745;28;20028;-79
2021/05/25 02:57:11;;;;;;;1.60;0.98;;;;;;;9.60;86.76;100427.34;5043991;28;20178;-82
2021/05/25 02:59:36;;;;;;;2.08;1.17;;;;;;;9.56;88.00;100437.88;5078217;28;20542;-81
2021/05/25 03:02:02;;;;;;;1.05;0.95;;;;;;;9.55;87.62;100423.09;5043892;28;20023;-80
2021/05/25 03:04:28;;;;;;;1.63;1.52;;;;;;;9.61;87.33;100434.31;5061421;28;20024;-82
2021/05/25 03:06:53;;;;;;;2.47;1.15;;;;;;;9.38;88.38;100432.06;5060291;28;20016;-82
2021/05/25 03:09:19;;;;;;;1.30;0.93;;;;;;;9.54;87.60;100427.44;5060206;28;20020;-81
2021/05/25 03:11:45;;;;;;;1.23;1.13;;;;;;;9.48;88.11;100438.84;5043605;28;20024;-81
2021/05/25 03:14:11;;;;;;;1.63;1.23;;;;;;;9.40;88.06;100437.25;5060355;28;20420;-81
2021/05/25 03:16:36;;;;;;;1.15;1.05;;;;;;;9.42;87.45;100443.28;5078609;28;20056;-81
2021/05/25 03:19:01;;;;;;;2.05;1.20;;;;;;;9.33;88.83;100444.31;5044024;28;20023;-80
2021/05/25 03:21:27;;;;;;;1.02;1.00;;;;;;;9.44;87.41;100441.53;5044779;28;20027;-81
2021/05/25 03:23:54;;;;;;;1.60;1.20;;;;;;;9.34;87.51;100450.38;5060802;28;20023;-79
2021/05/25 03:26:19;;;;;;;1.40;1.30;;;;;;;9.17;88.67;100443.66;5044184;28;20031;-82
2021/05/25 03:28:44;;;;;;;1.38;1.02;;;;;;;9.12;87.84;100450.66;5078247;28;20316;-83
2021/05/25 03:31:12;;;;;;;1.77;1.40;;;;;;;8.98;88.16;100457.84;5061308;28;20098;-81
2021/05/25 03:33:37;;;;;;;3.95;1.20;;;;;;;9.18;87.71;100454.97;5060863;28;20020;-81
2021/05/25 03:36:03;;;;;;;1.40;1.30;;;;;;;9.05;86.96;100454.25;5044237;28;20055;-81
2021/05/25 03:38:28;;;;;;;1.35;1.25;;;;;;;9.10;87.84;100462.88;5043689;28;20332;-82
2021/05/25 03:40:54;;;;;;;1.42;1.33;;;;;;;9.20;87.17;100468.81;5044887;28;20033;-80
2021/05/25 03:43:19;;;;;;;2.00;1.30;;;;;;;8.96;88.25;100471.72;5061166;28;20035;-79
2021/05/25 03:45:44;;;;;;;0.70;0.70;;;;;;;9.09;86.57;100464.63;5060346;28;20412;-83
2021/05/25 03:48:10;;;;;;;1.42;1.00;;;;;;;9.19;87.05;100467.97;5042663;28;20059;-82
2021/05/25 03:50:35;;;;;;;1.63;1.40;;;;;;;9.02;86.83;100465.56;5043555;28;20017;-81
2021/05/25 03:53:01;;;;;;;1.20;1.08;;;;;;;9.17;86.61;100463.66;5043808;28;20024;-81
2021/05/25 04:00:53;;;;;;;1.50;1.40;;;;;;;9.07;85.88;100471.59;5077795;28;20035;-79
2021/05/25 04:03:18;;;;;;;1.85;1.20;;;;;;;9.21;86.64;100476.59;5077854;28;20060;-81
2021/05/25 04:05:44;;;;;;;2.33;1.20;;;;;;;9.30;86.57;100471.25;5077043;28;20024;-82
2021/05/25 04:08:09;;;;;;;1.52;1.17;;;;;;;9.29;85.84;100468.69;5043030;28;20036;-80
2021/05/25 04:10:35;;;;;;;1.27;1.20;;;;;;;9.30;85.01;100471.25;5059334;28;20024;-80
2021/05/25 04:13:01;;;;;;;1.30;1.30;;;;;;;9.14;87.06;100469.75;5059260;28;20110;-82
2021/05/25 04:15:27;;;;;;;2.60;1.88;;;;;;;8.98;86.88;100476.91;5059826;28;20035;-81
2021/05/25 04:17:53;;;;;;;1.30;1.15;;;;;;;8.96;87.31;100471.72;5042567;28;20443;-80
2021/05/25 04:20:19;;;;;;;1.10;1.05;;;;;;;9.14;86.55;100474.97;5059455;28;20024;-80
2021/05/25 04:22:45;;;;;;;1.45;1.10;;;;;;;9.06;86.33;100487.25;5060198;28;20028;-81
2021/05/25 04:25:10;;;;;;;3.67;1.23;;;;;;;8.94;85.85;100488.25;5043435;28;20529;-79
2021/05/25 04:27:36;;;;;;;2.47;1.05;;;;;;;8.83;86.08;100487.53;5059733;28;20020;-79
2021/05/25 04:30:02;;;;;;;1.70;1.30;;;;;;;8.96;86.70;100497.78;5042372;28;20036;-80
2021/05/25 04:32:27;;;;;;;1.17;1.00;;;;;;;8.86;87.09;100488.38;5059758;28;20107;-82
2021/05/25 04:34:53;;;;;;;1.10;1.00;;;;;;;8.68;86.67;100485.97;5076428;28;20052;-80
2021/05/25 04:37:18;;;;;;;1.15;0.80;;;;;;;8.66;87.42;100488.59;5059133;28;20099;-79
2021/05/25 04:39:43;;;;;;;1.88;0.90;;;;;;;8.70;86.73;100494.63;5059433;28;20032;-82
2021/05/25 04:42:12;;;;;;;0.80;0.77;;;;;;;8.74;87.79;100491.97;5060657;28;20032;-81
2021/05/25 04:44:37;;;;;;;1.33;0.70;;;;;;;8.68;87.19;100499.00;5041978;28;20024;-82
2021/05/25 04:47:02;;;;;;;0.80;0.80;;;;;;;8.65;86.74;100497.28;5042291;28;20416;-82
2021/05/25 04:49:28;;;;;;;2.05;1.10;;;;;;;8.62;86.58;100500.78;5042462;28;20027;-85
2021/05/25 04:51:53;;;;;;;0.85;0.80;;;;;;;8.54;87.82;100507.81;5059177;28;20020;-83
2021/05/25 04:54:18;;;;;;;1.15;0.80;;;;;;;8.76;88.33;100504.97;5058456;28;20063;-82
2021/05/25 04:56:44;;;;;;;0.85;0.85;;;;;;;8.77;87.64;100504.13;5042075;28;20075;-81
2021/05/25 04:59:10;;;;;;;1.60;1.30;;;;;;;8.73;87.98;100505.03;5041609;28;20028;-81
2021/05/25 05:01:35;;;;;;;1.08;1.05;;;;;;;8.57;87.91;100507.78;5042143;28;20362;-83
2021/05/25 05:04:00;;;;;;;1.15;0.98;;;;;;;8.60;87.87;100505.16;5041936;28;20052;-83
2021/05/25 05:06:25;;;;;;;0.95;0.95;;;;;;;8.65;89.20;100518.13;5058465;28;20175;-80
2021/05/25 05:08:51;;;;;;;2.13;1.20;;;;;;;8.68;88.09;100517.22;5042609;28;20089;-81
2021/05/25 05:11:16;;;;;;;2.22;0.88;;;;;;;8.86;87.93;100521.34;5042386;28;20031;-83
2021/05/25 05:13:42;;;;;;;2.03;1.27;;;;;;;8.76;86.63;100518.00;5042024;28;20032;-83
2021/05/25 05:16:07;;;;;;;1.92;1.83;;;;;;;9.02;87.53;100522.91;5041747;28;20119;-84
2021/05/25 05:18:32;;;;;;;1.33;1.30;;;;;;;9.17;86.38;100527.03;5041548;28;20021;-83
2021/05/25 05:20:58;;;;;;;1.95;1.08;;;;;;;9.02;86.91;100524.66;5041481;28;20032;-85
2021/05/25 05:23:23;;;;;;;4.35;1.30;;;;;;;9.17;84.51;100524.44;5058180;28;20021;-83
2021/05/25 05:25:48;;;;;;;2.25;1.30;;;;;;;9.12;86.22;100529.72;5058845;28;20382;-84
2021/05/25 05:28:14;;;;;;;2.25;2.15;;;;;;;9.06;85.04;100518.50;5057956;28;20020;-83
2021/05/25 05:30:40;;;;;;;2.50;2.30;;;;;;;8.91;85.90;100520.41;5041096;28;20024;-81
2021/05/25 05:33:06;;;;;;;2.70;2.60;;;;;;;8.99;85.37;100524.69;5058818;28;20020;-83
2021/05/25 05:35:32;;;;;;;2.15;2.05;;;;;;;8.97;85.41;100524.69;5058991;28;20442;-84
2021/05/25 05:37:57;;;;;;;3.00;2.80;;;;;;;9.11;85.75;100534.97;5043179;28;20025;-83
2021/05/25 05:40:23;;;;;;;3.15;2.95;;;;;;;9.02;86.15;100527.25;5042071;28;20107;-84
2021/05/25 05:42:48;;;;;;;2.90;2.70;;;;;;;9.10;85.44;100534.06;5055049;22;20421;-82
2021/05/25 05:45:14;;;;;;;3.17;2.88;;;;;;;9.28;86.20;100537.34;5036480;28;20114;-83
2021/05/25 05:47:39;;;;;;;2.95;2.83;;;;;;;9.25;85.42;100540.00;5054077;28;20025;-82
2021/05/25 05:50:10;;;;;;;3.10;2.90;;;;;;;9.19;87.33;100524.41;5053458;28;20021;-80
2021/05/25 05:52:39;;;;;;;3.90;3.50;;;;;;;8.96;87.02;100529.03;5022782;28;20025;-82
2021/05/25 05:55:05;;;;;;;3.70;3.50;;;;;;;8.94;86.10;100529.94;5022456;28;20111;-80
2021/05/25 05:57:31;;;;;;;3.10;2.90;;;;;;;9.07;86.13;100530.66;5036698;28;20424;-79
2021/05/25 05:59:56;;;;;;;3.33;3.13;;;;;;;9.04;87.18;100535.91;5053022;28;20032;-80
2021/05/25 06:02:21;;;;;;;3.50;3.20;;;;;;;8.85;86.94;100536.13;5053894;28;20448;-81
2021/05/25 06:04:47;;;;;;;3.85;3.55;;;;;;;8.71;86.57;100536.31;5039874;28;20432;-80
2021/05/25 06:07:12;;;;;;;2.97;2.78;;;;;;;8.69;85.07;100543.25;5055535;28;20025;-82
2021/05/25 06:09:38;;;;;;;3.13;2.92;;;;;;;8.81;85.44;100537.06;5056688;28;20039;-80
2021/05/25 06:12:03;;;;;;;5.45;2.97;;;;;;;8.86;85.36;100537.88;5024209;28;20021;-82
2021/05/25 06:14:29;;;;;;;5.45;3.72;;;;;;;8.74;85.25;100533.66;5025911;28;20021;-86
2021/05/25 06:16:54;;;;;;;3.03;2.83;;;;;;;8.81;85.69;100524.03;5058842;28;20403;-85
2021/05/25 06:19:20;;;;;;;2.63;2.42;;;;;;;8.96;84.90;100526.44;5041647;28;20025;-84
2021/05/25 06:21:48;;;;;;;2.40;2.20;;;;;;;8.86;84.83;100532.66;5011758;28;20425;-84
2021/05/25 06:24:19;;;;;;;2.60;2.50;;;;;;;8.82;85.26;100523.16;5032795;28;20024;-84
2021/05/25 06:26:44;;;;;;;2.65;2.40;;;;;;;8.82;83.88;100532.69;5059405;28;20059;-83
2021/05/25 06:29:12;;;;;;;3.03;2.53;;;;;;;8.91;84.08;100530.00;5039707;28;20048;-82
2021/05/25 06:32:07;;;;;;;2.58;1.80;;;;;;;9.30;82.55;100539.03;5040622;28;20432;-83
2021/05/25 06:34:48;;;;;;;4.10;2.45;;;;;;;9.01;83.44;100525.53;5040408;28;20032;-81
2021/05/25 06:37:41;;;;;;;2.92;2.72;;;;;;;9.20;83.28;100537.44;5018545;28;20033;-82
2021/05/25 06:40:14;;;;;;;2.95;2.80;;;;;;;9.35;82.76;100535.50;5023507;28;20048;-83
2021/05/25 06:42:39;;;;;;;2.67;2.47;;;;;;;9.24;82.93;100539.13;5042046;28;20024;-83
2021/05/25 06:45:06;;;;;;;3.05;2.85;;;;;;;9.32;83.47;100540.78;5042856;28;20393;-80
2021/05/25 06:47:41;;;;;;;2.72;2.60;;;;;;;9.52;82.05;100543.13;5030272;28;20420;-83
2021/05/25 06:50:08;;;;;;;2.83;2.72;;;;;;;9.45;81.63;100539.72;5048642;28;20060;-84
2021/05/25 06:52:39;;;;;;;4.13;3.28;;;;;;;9.34;82.67;100545.09;5023743;28;20025;-84
2021/05/25 06:55:04;;;;;;;3.17;2.88;;;;;;;9.71;82.70;100555.00;5033809;28;20314;-82
2021/05/25 06:57:30;;;;;;;3.50;3.30;;;;;;;9.61;81.81;100549.06;5040058;28;20029;-83
2021/05/25 07:00:06;;;;;;;3.08;2.97;;;;;;;9.36;82.22;100548.53;5057111;28;20013;-79
2021/05/25 07:02:44;;;;;;;4.75;2.95;;;;;;;9.16;83.35;100551.38;5034445;28;20033;-84
2021/05/25 07:05:10;;;;;;;3.00;2.90;;;;;;;9.24;81.62;100560.00;5047135;28;20040;-81
2021/05/25 07:08:14;;;;;;;2.63;2.53;;;;;;;9.25;81.76;100563.44;5023686;28;20044;-81
2021/05/25 07:10:45;;;;;;;2.72;2.53;;;;;;;9.44;80.13;100571.88;4992369;28;20095;-81
2021/05/25 07:13:21;;;;;;;2.88;2.67;;;;;;;9.22;81.10;100566.94;5023396;28;20455;-82
2021/05/25 07:16:13;;;;;;;3.08;2.90;;;;;;;9.56;79.84;100570.88;5012472;28;20451;-82
2021/05/25 07:19:17;;;;;;;2.28;2.17;;;;;;;10.11;79.25;100564.78;5036724;28;20509;-80
2021/05/25 07:25:12;;;;;;;4.00;2.17;;;;;;;10.49;76.28;100575.50;5047029;28;20103;-81
2021/05/25 07:27:43;;;;;;;3.80;2.80;;;;;;;10.00;78.59;100576.31;5047783;28;20106;-81
2021/05/25 07:30:12;;;;;;;2.33;2.22;;;;;;;10.29;78.18;100578.44;5027682;28;20029;-82
2021/05/25 07:33:03;;;;;;;2.65;2.53;;;;;;;10.09;78.21;100581.34;5023663;28;20574;-84
2021/05/25 07:35:29;;;;;;;3.10;2.90;;;;;;;9.55;80.19;100576.97;5013495;28;20048;-81
2021/05/25 07:37:54;;;;;;;2.75;2.55;;;;;;;9.34;81.42;100585.91;5028452;28;20376;-82
2021/05/25 07:40:43;;;;;;;3.20;3.00;;;;;;;9.29;83.56;100597.25;5038862;28;20100;-87
2021/05/25 07:43:12;;;;;;;2.78;2.58;;;;;;;9.34;84.03;100591.13;5009403;28;20084;-85
2021/05/25 07:45:44;;;;;;;3.80;2.88;;;;;;;9.13;84.98;100591.41;5023161;28;20520;-84
2021/05/25 07:48:10;;;;;;;3.35;3.08;;;;;;;8.76;85.07;100597.00;5054562;28;20143;-85
2021/05/25 07:50:35;;;;;;;2.67;2.58;;;;;;;8.83;83.84;100586.53;5023836;28;20452;-85
2021/05/25 07:53:01;;;;;;;3.10;2.85;;;;;;;8.63;84.25;100588.44;5025650;28;20044;-86
2021/05/25 07:55:30;;;;;;;3.45;2.88;;;;;;;8.63;85.33;100588.44;5023195;28;20051;-84
2021/05/25 07:58:00;;;;;;;2.53;2.38;;;;;;;8.98;83.86;100598.50;5041458;28;20028;-82
2021/05/25 08:00:32;;;;;;;3.58;2.85;;;;;;;8.92;83.40;100602.91;5017665;28;20021;-83
2021/05/25 08:03:03;;;;;;;2.28;2.08;;;;;;;8.66;82.82;100602.31;5011871;28;20036;-85
2021/05/25 08:05:31;;;;;;;2.10;2.00;;;;;;;8.61;82.56;100605.81;5023987;28;20171;-79
2021/05/25 08:07:56;;;;;;;1.95;1.85;;;;;;;8.58;82.13;100616.25;5041247;28;20017;-81
2021/05/25 08:10:25;;;;;;;3.28;1.55;;;;;;;8.58;82.36;100613.66;5023098;28;20020;-84
2021/05/25 08:12:50;;;;;;;4.00;1.73;;;;;;;8.44;82.11;100610.31;5037775;28;20051;-83
2021/05/25 08:15:20;;;;;;;1.80;1.70;;;;;;;8.39;81.95;100606.88;5022543;28;20611;-83
2021/05/25 08:20:48;;;;;;;1.45;1.40;;;;;;;8.63;83.19;100603.22;5040473;28;20086;-82
2021/05/25 08:23:16;;;;;;;3.95;1.50;;;;;;;8.59;83.00;100604.97;5037751;28;20029;-83
2021/05/25 08:25:45;;;;;;;7.55;1.75;;;;;;;8.42;81.44;100612.91;5038492;28;20122;-85
2021/05/25 08:28:12;;;;;;;2.65;1.70;;;;;;;8.44;81.80;100612.91;5021982;28;20021;-82
2021/05/25 08:30:42;;;;;;;2.13;2.03;;;;;;;8.31;82.30;100616.50;5020599;28;20078;-82
2021/05/25 08:33:44;;;;;;;1.70;1.52;;;;;;;8.70;82.01;100619.63;5021147;28;20428;-85
2021/05/25 08:36:12;;;;;;;12.90;2.55;;;;;;;8.71;82.25;100616.16;5052410;28;20087;-87
2021/05/25 08:38:38;;;;;;;1.70;1.60;;;;;;;8.63;82.13;100617.09;5021615;28;20056;-85
2021/05/25 08:41:03;;;;;;;2.33;2.22;;;;;;;8.80;82.68;100624.72;5018552;28;20313;-85
2021/05/25 08:43:29;;;;;;;2.40;2.20;;;;;;;8.93;82.74;100616.78;5018369;28;20029;-84
2021/05/25 08:45:54;;;;;;;3.15;2.80;;;;;;;8.85;82.50;100621.22;5020392;28;20021;-88
2021/05/25 08:48:25;;;;;;;4.28;2.80;;;;;;;9.14;81.77;100628.72;5019494;28;20053;-80
2021/05/25 08:50:53;;;;;;;3.30;3.03;;;;;;;9.57;80.55;100622.13;5034792;28;20037;-81
2021/05/25 08:53:21;;;;;;;2.83;2.58;;;;;;;9.44;80.49;100624.03;5001879;28;20029;-84
2021/05/25 08:55:50;;;;;;;3.60;3.33;;;;;;;9.77;80.21;100634.91;5034233;28;20029;-83
2021/05/25 08:58:15;;;;;;;3.50;3.30;;;;;;;10.13;80.07;100622.22;5018799;28;20033;-82
2021/05/25 09:00:41;;;;;;;3.22;2.63;;;;;;;10.39;78.78;100621.81;5003239;28;20465;-84
2021/05/25 09:03:06;;;;;;;3.45;3.25;;;;;;;10.47;78.42;100629.50;5020699;28;20064;-83
2021/05/25 09:05:32;;;;;;;3.13;2.97;;;;;;;10.61;77.12;100630.13;5037107;28;20120;-82
2021/05/25 09:07:59;;;;;;;2.70;2.50;;;;;;;11.15;74.26;100630.88;5021882;28;20021;-79
2021/05/25 09:10:36;;;;;;;5.82;3.35;;;;;;;10.92;73.41;100623.50;5037402;28;20036;-83
2021/05/25 09:13:03;;;;;;;3.47;2.35;;;;;;;11.39;73.44;100628.69;5031774;28;20021;-84
2021/05/25 09:15:34;;;;;;;2.80;2.60;;;;;;;11.39;73.84;100628.69;5019391;28;20061;-83
2021/05/25 09:18:04;;;;;;;4.03;3.17;;;;;;;11.12;73.66;100628.34;5015871;28;20067;-80
2021/05/25 09:20:41;;;;;;;4.32;3.45;;;;;;;10.64;75.87;100632.69;5027329;28;20067;-82
2021/05/25 09:23:07;;;;;;;3.83;3.47;;;;;;;10.69;75.45;100623.91;5017877;28;20083;-83
2021/05/25 09:25:33;;;;;;;4.55;3.03;;;;;;;11.35;74.47;100625.28;5005276;28;20328;-82
2021/05/25 09:28:00;;;;;;;2.83;2.70;;;;;;;11.49;72.28;100618.00;5048455;28;20032;-82
2021/05/25 09:30:30;;;;;;;3.78;2.75;;;;;;;11.65;73.75;100613.28;5021430;28;20032;-81
2021/05/25 09:33:43;;;;;;;3.47;3.22;;;;;;;11.69;72.52;100613.25;5015345;28;20117;-83
2021/05/25 09:36:13;;;;;;;3.40;3.10;;;;;;;11.52;69.44;100614.47;4939068;28;20039;-82
2021/05/25 09:38:39;;;;;;;2.80;2.60;;;;;;;11.93;69.49;100602.22;4982220;28;20121;-79
2021/05/25 09:41:06;;;;;;;3.15;2.90;;;;;;;12.00;70.11;100603.81;5046730;28;20495;-82
2021/05/25 09:43:42;;;;;;;2.25;2.10;;;;;;;12.43;68.21;100590.56;5047786;28;20036;-83
2021/05/25 09:46:15;;;;;;;5.22;2.20;;;;;;;11.87;69.18;100604.97;5041484;28;20041;-83
2021/05/25 09:48:43;;;;;;;5.32;1.85;;;;;;;12.20;64.13;100599.84;5040102;28;20021;-84
2021/05/25 09:51:26;;;;;;;2.28;1.38;;;;;;;12.12;63.86;100596.56;5039255;28;20044;-84
2021/05/25 09:53:52;;;;;;;1.13;1.02;;;;;;;12.43;60.19;100587.94;5029882;28;20099;-80
2021/05/25 09:56:36;;;;;;;2.70;1.70;;;;;;;12.05;63.60;100595.00;5048003;28;20056;-82
2021/05/25 09:59:02;;;;;;;4.72;1.10;;;;;;;13.07;60.62;100603.69;5017661;28;20021;-80
2021/05/25 10:01:35;;;;;;;2.20;1.05;;;;;;;12.36;62.15;100599.47;5030302;28;20393;-85
2021/05/25 10:04:11;;;;;;;2.78;1.10;;;;;;;12.82;61.03;100593.88;5041216;28;20047;-84
2021/05/25 10:06:38;;;;;;;4.38;1.30;;;;;;;12.97;60.28;100584.75;5039008;28;20424;-82
2021/05/25 10:09:50;;;;;;;2.75;1.27;;;;;;;13.01;59.46;100585.53;5023272;28;20027;-86
2021/05/25 10:12:31;;;;;;;1.95;1.17;;;;;;;13.13;60.96;100594.78;4949057;28;20039;-87
2021/05/25 10:15:00;;;;;;;2.35;0.88;;;;;;;11.94;61.13;100611.81;5031721;28;20397;-81
2021/05/25 10:20:10;;;;;;;0.82;0.40;;;;;;;11.73;60.51;100604.44;5041724;28;20353;-85
2021/05/25 10:23:06;;;;;;;5.10;0.60;;;;;;;11.19;61.81;100609.03;5014800;28;20129;-86
2021/05/25 10:25:37;;;;;;;2.60;0.80;;;;;;;10.96;63.29;100605.13;5050165;28;20033;-84
2021/05/25 10:28:40;;;;;;;5.90;0.77;;;;;;;10.94;65.24;100608.66;5040436;28;20065;-83
2021/05/25 10:31:28;;;;;;;2.45;1.40;;;;;;;11.16;66.04;100609.09;5025053;28;20075;-84
2021/05/25 10:34:52;;;;;;;3.33;0.73;;;;;;;11.55;64.60;100611.78;5042712;28;20025;-82
2021/05/25 10:37:36;;;;;;;2.17;1.10;;;;;;;12.04;65.06;100598.50;5054187;28;20072;-83
2021/05/25 10:40:26;;;;;;;;;;;;;;;;;;;;;
2021/05/25 10:42:52;;;;;;;2.13;0.95;;;;;;;12.88;60.32;100603.34;5048313;22;20342;-73
2021/05/25 10:45:18;;;;;;;0.65;0.55;;;;;;;12.71;57.65;100602.94;5053719;28;20103;-73
2021/05/25 10:48:06;;;;;;;0.93;0.45;;;;;;;12.39;57.25;100605.47;5055621;28;20051;-74
2021/05/25 10:50:44;;;;;;;2.50;0.70;;;;;;;12.67;55.80;100597.78;5057701;28;20090;-73
2021/05/25 10:53:09;;;;;;;3.55;0.80;;;;;;;12.42;56.91;100599.31;5058307;28;20048;-74
2021/05/25 10:55:41;;;;;;;2.97;0.50;;;;;;;12.26;57.99;100598.84;5057962;28;20059;-73
2021/05/25 10:58:31;;;;;;;4.47;0.77;;;;;;;13.04;55.44;100592.44;5041492;28;20016;-73
2021/05/25 11:01:02;;;;;;;1.60;0.57;;;;;;;13.95;52.79;100587.16;5057862;28;20159;-73
2021/05/25 11:03:28;;;;;;;0.55;0.55;;;;;;;15.85;47.14;100596.22;5046948;28;20032;-73
2021/05/25 11:05:56;;;;;;;0.60;0.47;;;;;;;16.50;44.00;100585.69;5038272;28;20024;-73
2021/05/25 11:08:29;;;;;;;0.80;0.60;;;;;;;15.99;45.66;100586.00;5055233;28;20033;-73
2021/05/25 11:11:03;;;;;;;2.63;0.70;;;;;;;15.63;45.51;100589.13;5037821;28;20060;-73
2021/05/25 11:13:30;;;;;;;1.55;0.50;;;;;;;14.09;49.72;100587.53;5038078;28;20115;-73
2021/05/25 11:19:18;;;;;;;2.70;1.25;;;;;;;14.05;50.18;100585.09;5021529;28;20043;-74
2021/05/25 11:24:42;;;;;;;2.30;0.50;;;;;;;17.93;39.79;100570.44;5055708;28;20089;-73
2021/05/25 11:27:13;;;;;;;0.68;0.35;;;;;;;18.73;36.78;100566.41;5055585;28;20025;-74
2021/05/25 11:29:48;;;;;;;0.52;0.43;;;;;;;19.70;33.96;100562.94;5054853;28;20075;-74
2021/05/25 11:32:15;;;;;;;1.00;0.30;;;;;;;21.71;32.74;100561.50;5037534;28;20044;-74
2021/05/25 11:34:41;;;;;;;1.70;0.55;;;;;;;24.10;27.52;100565.34;5036689;28;20025;-74
2021/05/25 11:37:09;;;;;;;1.05;0.50;;;;;;;19.41;34.19;100570.75;5049825;28;20048;-74
2021/05/25 11:39:35;;;;;;;0.90;0.45;;;;;;;17.90;38.63;100576.69;5074249;28;20028;-73
2021/05/25 11:42:06;;;;;;;1.55;0.70;;;;;;;18.70;36.83;100571.81;5042965;28;20035;-73
2021/05/25 11:44:41;;;;;;;1.08;0.65;;;;;;;20.80;34.19;100561.88;5032001;28;20024;-74
2021/05/25 11:47:06;;;;;;;1.00;0.60;;;;;;;22.19;28.02;100565.50;5063388;28;20017;-71
2021/05/25 11:49:34;;;;;;;1.02;0.55;;;;;;;21.59;29.32;100565.81;5041251;28;20417;-72
2021/05/25 11:52:00;;;;;;;0.68;0.55;;;;;;;21.80;28.50;100560.06;5053591;28;20036;-71
2021/05/25 11:54:31;;;;;;;0.75;0.30;;;;;;;22.54;28.37;100554.31;5036917;28;20025;-71
2021/05/25 11:56:56;;;;;;;0.95;0.25;;;;;;;22.67;27.71;100560.47;5036800;28;20049;-71
2021/05/25 11:59:22;;;;;;;2.17;0.60;;;;;;;18.34;34.72;100575.44;5036142;28;20441;-71
2021/05/25 12:01:53;;;;;;;1.23;0.50;;;;;;;16.46;37.39;100574.41;5054571;28;20027;-71